RYR41KJ EICK-LIME
Flight info
| Callsign | RYR41KJ |
|---|---|
| Flight time | N/A |
| Altitude | 37000 |
| Route | ELTIG1N ELTIG DCT NORLA DCT PEWBI DCT OXLOW M140 SAM L620 MID UL612 VEULE DCT TEPRI UN491 POGZI DCT GELTA DCT LUVAL DCT SHARA DCT DEVDI DCT RIPUS N850 SOSON DCT ODINA |
| Aircraft | B38M/M-SDE1FGHILORVWXY/HB1 |
Departure
| Time | 2026-05-05 18:09 |
|---|---|
| Airport | Cork International Airport (EICK) |
Arrival
| Time | N/A |
|---|---|
| Airport | Il Caravaggio International Airport (LIME) |
| Time | Latitude | Longitude | Altitude | Speed | Heading |
|---|---|---|---|---|---|
| 2026-05-05 17:38 | 51.84935 | -8.49122 | 507 ft | 0 kts | 70° |
| 2026-05-05 18:00 | 51.84933 | -8.49128 | 507 ft | 3 kts | 70° |
| 2026-05-05 18:00 | 51.84925 | -8.49169 | 507 ft | 4 kts | 74° |
| 2026-05-05 18:00 | 51.84919 | -8.49211 | 507 ft | 4 kts | 84° |
| 2026-05-05 18:01 | 51.84921 | -8.49253 | 507 ft | 4 kts | 115° |
| 2026-05-05 18:01 | 51.84932 | -8.49271 | 507 ft | 0 kts | 166° |
| 2026-05-05 18:04 | 51.84918 | -8.49266 | 507 ft | 6 kts | 165° |
| 2026-05-05 18:04 | 51.84850 | -8.49231 | 507 ft | 13 kts | 173° |
| 2026-05-05 18:04 | 51.84794 | -8.49335 | 506 ft | 14 kts | 249° |
| 2026-05-05 18:04 | 51.84745 | -8.49462 | 505 ft | 9 kts | 195° |
| 2026-05-05 18:05 | 51.84683 | -8.49440 | 504 ft | 10 kts | 160° |
| 2026-05-05 18:05 | 51.84610 | -8.49397 | 505 ft | 12 kts | 159° |
| 2026-05-05 18:05 | 51.84514 | -8.49339 | 505 ft | 18 kts | 160° |
| 2026-05-05 18:05 | 51.84387 | -8.49262 | 506 ft | 21 kts | 160° |
| 2026-05-05 18:06 | 51.84245 | -8.49180 | 508 ft | 22 kts | 160° |
| 2026-05-05 18:06 | 51.84148 | -8.49124 | 510 ft | 22 kts | 159° |
| 2026-05-05 18:06 | 51.83936 | -8.48997 | 503 ft | 26 kts | 160° |
| 2026-05-05 18:06 | 51.83756 | -8.48891 | 501 ft | 28 kts | 159° |
| 2026-05-05 18:07 | 51.83573 | -8.48782 | 503 ft | 28 kts | 160° |
| 2026-05-05 18:07 | 51.83393 | -8.48675 | 506 ft | 28 kts | 159° |
| 2026-05-05 18:07 | 51.83293 | -8.48569 | 506 ft | 13 kts | 114° |
| 2026-05-05 18:07 | 51.83267 | -8.48524 | 506 ft | 1 kts | 185° |
| 2026-05-05 18:08 | 51.83259 | -8.48532 | 506 ft | 3 kts | 225° |
| 2026-05-05 18:08 | 51.83252 | -8.48565 | 507 ft | 3 kts | 275° |
| 2026-05-05 18:08 | 51.83279 | -8.48607 | 507 ft | 10 kts | 334° |
| 2026-05-05 18:08 | 51.83393 | -8.48676 | 506 ft | 34 kts | 339° |
| 2026-05-05 18:09 | 51.83872 | -8.48959 | 502 ft | 110 kts | 340° |
| 2026-05-05 18:09 | 51.84782 | -8.49493 | 531 ft | 166 kts | 340° |
| 2026-05-05 18:09 | 51.85933 | -8.50131 | 1105 ft | 182 kts | 343° |
| 2026-05-05 18:09 | 51.87145 | -8.50716 | 2066 ft | 179 kts | 342° |
| 2026-05-05 18:10 | 51.88379 | -8.51319 | 2659 ft | 198 kts | 343° |
| 2026-05-05 18:10 | 51.89824 | -8.51301 | 3099 ft | 227 kts | 21° |
| 2026-05-05 18:10 | 51.91056 | -8.49592 | 3782 ft | 242 kts | 61° |
| 2026-05-05 18:10 | 51.91445 | -8.46848 | 4334 ft | 260 kts | 92° |
| 2026-05-05 18:11 | 51.90857 | -8.44036 | 4564 ft | 271 kts | 120° |
| 2026-05-05 18:11 | 51.89947 | -8.41400 | 5632 ft | 267 kts | 115° |
| 2026-05-05 18:11 | 51.89132 | -8.38640 | 6513 ft | 276 kts | 112° |
| 2026-05-05 18:11 | 51.88354 | -8.35774 | 7454 ft | 280 kts | 111° |
| 2026-05-05 18:12 | 51.87594 | -8.32845 | 8349 ft | 284 kts | 110° |
| 2026-05-05 18:12 | 51.86838 | -8.29859 | 9225 ft | 289 kts | 110° |
| 2026-05-05 18:12 | 51.86091 | -8.26867 | 10077 ft | 293 kts | 110° |
| 2026-05-05 18:12 | 51.85322 | -8.23746 | 10674 ft | 307 kts | 110° |
| 2026-05-05 18:13 | 51.84519 | -8.20426 | 11038 ft | 327 kts | 110° |
| 2026-05-05 18:13 | 51.83667 | -8.16894 | 11351 ft | 347 kts | 110° |
| 2026-05-05 18:13 | 51.82761 | -8.13158 | 11700 ft | 364 kts | 110° |
| 2026-05-05 18:13 | 51.81820 | -8.09306 | 12303 ft | 372 kts | 111° |
| 2026-05-05 18:14 | 51.80854 | -8.05403 | 13105 ft | 374 kts | 111° |
| 2026-05-05 18:14 | 51.79875 | -8.01470 | 13765 ft | 380 kts | 111° |
| 2026-05-05 18:14 | 51.78880 | -7.97486 | 14461 ft | 384 kts | 111° |
| 2026-05-05 18:14 | 51.77874 | -7.93466 | 15099 ft | 389 kts | 112° |
| 2026-05-05 18:15 | 51.76854 | -7.89403 | 15734 ft | 393 kts | 112° |
| 2026-05-05 18:15 | 51.75821 | -7.85293 | 16356 ft | 397 kts | 112° |
| 2026-05-05 18:15 | 51.75026 | -7.81015 | 16931 ft | 401 kts | 102° |
| 2026-05-05 18:15 | 51.74437 | -7.76602 | 17510 ft | 405 kts | 102° |
| 2026-05-05 18:16 | 51.73836 | -7.72181 | 18067 ft | 409 kts | 102° |
| 2026-05-05 18:16 | 51.73224 | -7.67683 | 18618 ft | 412 kts | 102° |
| 2026-05-05 18:16 | 51.72604 | -7.63146 | 19181 ft | 415 kts | 102° |
| 2026-05-05 18:16 | 51.71978 | -7.58577 | 19737 ft | 418 kts | 102° |
| 2026-05-05 18:17 | 51.71347 | -7.53989 | 20258 ft | 421 kts | 102° |
| 2026-05-05 18:17 | 51.70710 | -7.49366 | 20766 ft | 424 kts | 102° |
| 2026-05-05 18:17 | 51.70065 | -7.44703 | 21272 ft | 427 kts | 102° |
| 2026-05-05 18:17 | 51.69414 | -7.40013 | 21784 ft | 429 kts | 102° |
| 2026-05-05 18:18 | 51.68758 | -7.35296 | 22263 ft | 432 kts | 102° |
| 2026-05-05 18:18 | 51.68097 | -7.30562 | 22719 ft | 435 kts | 102° |
| 2026-05-05 18:18 | 51.67428 | -7.25792 | 23171 ft | 438 kts | 103° |
| 2026-05-05 18:18 | 51.66762 | -7.21051 | 23601 ft | 440 kts | 103° |
| 2026-05-05 18:19 | 51.66081 | -7.16221 | 24028 ft | 443 kts | 103° |
| 2026-05-05 18:19 | 51.65393 | -7.11356 | 24425 ft | 447 kts | 103° |
| 2026-05-05 18:19 | 51.64698 | -7.06454 | 24829 ft | 449 kts | 103° |
| 2026-05-05 18:19 | 51.64000 | -7.01551 | 25232 ft | 452 kts | 103° |
| 2026-05-05 18:20 | 51.63294 | -6.96607 | 25620 ft | 454 kts | 103° |
| 2026-05-05 18:20 | 51.62824 | -6.93325 | 25881 ft | 455 kts | 103° |
| 2026-05-05 18:20 | 51.62106 | -6.88341 | 26267 ft | 457 kts | 103° |
| 2026-05-05 18:20 | 51.61324 | -6.83374 | 26627 ft | 460 kts | 104° |
| 2026-05-05 18:21 | 51.60531 | -6.78376 | 26990 ft | 462 kts | 104° |
| 2026-05-05 18:21 | 51.59479 | -6.71720 | 27444 ft | 464 kts | 104° |
| 2026-05-05 18:21 | 51.58939 | -6.68308 | 27670 ft | 466 kts | 104° |
| 2026-05-05 18:21 | 51.58136 | -6.63247 | 27988 ft | 469 kts | 104° |
| 2026-05-05 18:22 | 51.57325 | -6.58155 | 28289 ft | 471 kts | 104° |
| 2026-05-05 18:22 | 51.56518 | -6.53097 | 28607 ft | 473 kts | 104° |
| 2026-05-05 18:22 | 51.55697 | -6.47973 | 28933 ft | 474 kts | 104° |
| 2026-05-05 18:22 | 51.54862 | -6.42774 | 29238 ft | 476 kts | 104° |
| 2026-05-05 18:23 | 51.54043 | -6.37690 | 29592 ft | 476 kts | 104° |
| 2026-05-05 18:23 | 51.53211 | -6.32547 | 29993 ft | 475 kts | 104° |
| 2026-05-05 18:23 | 51.52367 | -6.27337 | 30388 ft | 475 kts | 104° |
| 2026-05-05 18:23 | 51.51545 | -6.22279 | 30742 ft | 474 kts | 104° |
| 2026-05-05 18:24 | 51.50709 | -6.17158 | 31115 ft | 474 kts | 104° |
| 2026-05-05 18:24 | 51.49875 | -6.12057 | 31480 ft | 473 kts | 104° |
| 2026-05-05 18:24 | 51.49033 | -6.06933 | 31854 ft | 472 kts | 104° |
| 2026-05-05 18:24 | 51.48197 | -6.01848 | 32230 ft | 471 kts | 104° |
| 2026-05-05 18:25 | 51.47361 | -5.96785 | 32594 ft | 469 kts | 104° |
| 2026-05-05 18:25 | 51.46804 | -5.93427 | 32818 ft | 469 kts | 104° |
| 2026-05-05 18:25 | 51.45695 | -5.86740 | 33253 ft | 468 kts | 104° |
| 2026-05-05 18:25 | 51.44857 | -5.81705 | 33598 ft | 467 kts | 104° |
| 2026-05-05 18:26 | 51.44018 | -5.76685 | 33951 ft | 466 kts | 104° |
| 2026-05-05 18:26 | 51.43179 | -5.71677 | 34272 ft | 465 kts | 104° |
| 2026-05-05 18:26 | 51.42340 | -5.66686 | 34583 ft | 464 kts | 104° |
| 2026-05-05 18:26 | 51.41498 | -5.61690 | 34836 ft | 464 kts | 105° |
| 2026-05-05 18:27 | 51.40654 | -5.56696 | 35097 ft | 464 kts | 105° |
| 2026-05-05 18:27 | 51.39810 | -5.51712 | 35381 ft | 464 kts | 105° |
| 2026-05-05 18:27 | 51.38961 | -5.46719 | 35629 ft | 464 kts | 105° |
| 2026-05-05 18:27 | 51.38113 | -5.41742 | 35876 ft | 463 kts | 105° |
| 2026-05-05 18:28 | 51.36409 | -5.31788 | 36312 ft | 464 kts | 105° |
| 2026-05-05 18:28 | 51.35553 | -5.26813 | 36499 ft | 464 kts | 105° |
| 2026-05-05 18:28 | 51.34692 | -5.21816 | 36694 ft | 464 kts | 105° |
| 2026-05-05 18:29 | 51.33845 | -5.16912 | 36949 ft | 463 kts | 105° |
| 2026-05-05 18:29 | 51.32978 | -5.11899 | 37040 ft | 462 kts | 105° |
| 2026-05-05 18:29 | 51.31378 | -5.02148 | 37003 ft | 453 kts | 98° |
| 2026-05-05 18:30 | 51.30556 | -4.92153 | 37002 ft | 454 kts | 97° |
| 2026-05-05 18:30 | 51.29740 | -4.82154 | 36999 ft | 453 kts | 97° |
| 2026-05-05 18:31 | 51.28919 | -4.72152 | 37000 ft | 454 kts | 97° |
| 2026-05-05 18:31 | 51.28095 | -4.62214 | 36999 ft | 454 kts | 97° |
| 2026-05-05 18:32 | 51.27258 | -4.52219 | 37000 ft | 453 kts | 97° |
| 2026-05-05 18:32 | 51.26414 | -4.42247 | 36999 ft | 453 kts | 97° |
| 2026-05-05 18:33 | 51.25561 | -4.32276 | 36992 ft | 453 kts | 98° |
| 2026-05-05 18:33 | 51.24700 | -4.22315 | 36990 ft | 453 kts | 98° |
| 2026-05-05 18:34 | 51.23830 | -4.12347 | 36990 ft | 453 kts | 98° |
| 2026-05-05 18:34 | 51.22951 | -4.02381 | 36989 ft | 453 kts | 98° |
| 2026-05-05 18:35 | 51.22070 | -3.92489 | 36991 ft | 453 kts | 98° |
| 2026-05-05 18:35 | 51.21174 | -3.82528 | 36989 ft | 452 kts | 98° |
| 2026-05-05 18:36 | 51.20273 | -3.72603 | 36992 ft | 452 kts | 98° |
| 2026-05-05 18:36 | 51.19362 | -3.62679 | 36989 ft | 452 kts | 98° |
| 2026-05-05 18:37 | 51.18444 | -3.52756 | 36989 ft | 452 kts | 98° |
| 2026-05-05 18:37 | 51.17522 | -3.42899 | 36988 ft | 452 kts | 99° |
| 2026-05-05 18:38 | 51.16589 | -3.33004 | 36990 ft | 452 kts | 99° |
| 2026-05-05 18:38 | 51.15647 | -3.23112 | 36991 ft | 451 kts | 99° |
| 2026-05-05 18:39 | 51.14696 | -3.13230 | 36982 ft | 451 kts | 99° |
| 2026-05-05 18:39 | 51.13737 | -3.03335 | 36983 ft | 451 kts | 99° |
| 2026-05-05 18:40 | 51.12770 | -2.93461 | 36985 ft | 451 kts | 99° |
| 2026-05-05 18:40 | 51.11797 | -2.83600 | 36981 ft | 452 kts | 99° |
| 2026-05-05 18:41 | 51.10818 | -2.73782 | 36973 ft | 451 kts | 99° |
| 2026-05-05 18:41 | 51.09828 | -2.63932 | 36973 ft | 451 kts | 100° |
| 2026-05-05 18:42 | 51.08829 | -2.54076 | 36970 ft | 451 kts | 100° |
| 2026-05-05 18:42 | 51.07821 | -2.44232 | 36970 ft | 451 kts | 100° |
| 2026-05-05 18:43 | 51.06807 | -2.34396 | 36958 ft | 451 kts | 100° |
| 2026-05-05 18:43 | 51.05785 | -2.24565 | 36962 ft | 451 kts | 100° |
| 2026-05-05 18:44 | 51.04756 | -2.14730 | 36954 ft | 450 kts | 100° |